Mc Veytown, Pennsylvania
Current Conditions -  °F | °C
As of 3:35 AM on Friday 24 Oct 2014 (Local Time) from KUNV Reporting Station
Overcast Overcast  
Wind Chill: 47°   Ceiling: 3700
Heat Index: 50°   Visibility: 10mi
Dew Point: 42°   Wind: 6mph
Humidity: 76%   Direction: 310°NW
Pressure: 29.98"   Gusts: NA
Location:  40.5138°N, 77.7384°W
Report Text: KUNV 240735Z AUTO 31005KT 10SM OVC037 10/06 A2998 RMK AO2 T00980057
Loading
Personal Weather Stations






























Interactive Weather Map
Tropical Storm Tracking
New forecast layout! Learn more

10-Day Weather Forecast

Advertisements
Track Severe Weather on mobile